Time,TemperatureF,DewpointF,PressureIn,WindDirection,WindDirectionDegrees,WindSpeedMPH,WindSpeedGustMPH,Humidity,HourlyPrecipIn,Conditions,Clouds,dailyrainin,SoftwareType,DateUTC
2013-08-21 00:11:00,68.0,62.0,30.12,SSW,205,0.0,-999.0,81,-99.99,,,0.00,weatherlink.com 1.10,2013-08-21 04:11:00,
2013-08-21 00:26:00,67.4,62.0,30.12,SSW,205,0.0,-999.0,82,-99.99,,,0.00,weatherlink.com 1.10,2013-08-21 04:26:00,
2013-08-21 00:41:00,67.0,62.0,30.12,SSW,205,0.0,-999.0,83,-99.99,,,0.00,weatherlink.com 1.10,2013-08-21 04:41:00,
2013-08-21 00:56:00,66.7,61.0,30.12,SSW,205,0.0,-999.0,83,-99.99,,,0.00,weatherlink.com 1.10,2013-08-21 04:56:00,
2013-08-21 01:11:00,66.4,61.0,30.12,SSW,205,0.0,-999.0,83,-99.99,,,0.00,weatherlink.com 1.10,2013-08-21 05:11:00,
2013-08-21 01:26:00,66.1,61.0,30.12,SSW,205,0.0,-999.0,84,-99.99,,,0.00,weatherlink.com 1.10,2013-08-21 05:26:00,
2013-08-21 01:43:00,65.8,61.0,30.12,SSW,205,0.0,-999.0,84,-99.99,,,0.00,weatherlink.com 1.10,2013-08-21 05:43:00,
2013-08-21 01:56:00,65.7,61.0,30.11,SSW,205,0.0,-999.0,85,-99.99,,,0.00,weatherlink.com 1.10,2013-08-21 05:56:00,
2013-08-21 02:11:00,65.4,61.0,30.12,SSW,205,0.0,-999.0,85,-99.99,,,0.00,weatherlink.com 1.10,2013-08-21 06:11:00,
2013-08-21 02:26:00,65.1,61.0,30.12,SSW,205,0.0,-999.0,86,-99.99,,,0.00,weatherlink.com 1.10,2013-08-21 06:26:00,
2013-08-21 02:41:00,64.8,61.0,30.12,SSW,205,0.0,-999.0,87,-99.99,,,0.00,weatherlink.com 1.10,2013-08-21 06:41:00,
2013-08-21 02:56:00,64.5,61.0,30.12,SSW,205,0.0,-999.0,87,-99.99,,,0.00,weatherlink.com 1.10,2013-08-21 06:56:00,
2013-08-21 03:11:00,63.9,60.0,30.12,SSW,205,0.0,-999.0,88,-99.99,,,0.00,weatherlink.com 1.10,2013-08-21 07:11:00,
2013-08-21 03:26:00,63.5,60.0,30.12,SSW,205,0.0,-999.0,89,-99.99,,,0.00,weatherlink.com 1.10,2013-08-21 07:26:00,
2013-08-21 03:41:00,63.1,60.0,30.12,SSW,205,0.0,-999.0,90,-99.99,,,0.00,weatherlink.com 1.10,2013-08-21 07:41:00,
2013-08-21 03:56:00,63.0,60.0,30.12,SSW,205,0.0,-999.0,91,-99.99,,,0.00,weatherlink.com 1.10,2013-08-21 07:56:00,
2013-08-21 04:11:00,62.8,60.0,30.12,SSW,205,0.0,-999.0,91,-99.99,,,0.00,weatherlink.com 1.10,2013-08-21 08:11:00,
2013-08-21 04:26:00,62.4,60.0,30.13,SSW,205,0.0,-999.0,91,-99.99,,,0.00,weatherlink.com 1.10,2013-08-21 08:26:00,
2013-08-21 04:41:00,62.2,60.0,30.13,SSW,205,0.0,-999.0,92,-99.99,,,0.00,weatherlink.com 1.10,2013-08-21 08:41:00,
2013-08-21 04:57:00,61.9,60.0,30.13,SSW,205,0.0,-999.0,92,-99.99,,,0.00,weatherlink.com 1.10,2013-08-21 08:57:00,
2013-08-21 05:12:00,61.8,60.0,30.13,SSW,205,0.0,-999.0,93,-99.99,,,0.00,weatherlink.com 1.10,2013-08-21 09:12:00,
2013-08-21 05:27:00,61.8,60.0,30.13,SSW,205,0.0,-999.0,93,-99.99,,,0.00,weatherlink.com 1.10,2013-08-21 09:27:00,
2013-08-21 05:42:00,61.9,60.0,30.13,SSW,205,0.0,-999.0,93,-99.99,,,0.00,weatherlink.com 1.10,2013-08-21 09:42:00,
2013-08-21 05:57:00,62.2,60.0,30.14,SSW,205,0.0,-999.0,93,-99.99,,,0.00,weatherlink.com 1.10,2013-08-21 09:57:00,
2013-08-21 06:12:00,62.4,60.0,30.14,SSW,205,0.0,-999.0,93,-99.99,,,0.00,weatherlink.com 1.10,2013-08-21 10:12:00,
2013-08-21 06:27:00,62.7,60.0,30.14,SSW,205,0.0,-999.0,91,-99.99,,,0.00,weatherlink.com 1.10,2013-08-21 10:27:00,
2013-08-21 06:42:00,62.7,60.0,30.14,SSW,205,0.0,-999.0,91,-99.99,,,0.00,weatherlink.com 1.10,2013-08-21 10:42:00,
2013-08-21 06:57:00,63.0,60.0,30.14,SSW,205,0.0,-999.0,91,-99.99,,,0.00,weatherlink.com 1.10,2013-08-21 10:57:00,
2013-08-21 07:12:00,63.5,61.0,30.14,SSW,205,0.0,-999.0,90,-99.99,,,0.00,weatherlink.com 1.10,2013-08-21 11:12:00,
2013-08-21 07:27:00,64.1,61.0,30.14,SSW,205,0.0,-999.0,89,-99.99,,,0.00,weatherlink.com 1.10,2013-08-21 11:27:00,
2013-08-21 07:42:00,64.9,61.0,30.14,SSW,205,0.0,-999.0,87,-99.99,,,0.00,weatherlink.com 1.10,2013-08-21 11:42:00,
2013-08-21 07:57:00,65.7,62.0,30.15,SSW,205,0.0,-999.0,86,-99.99,,,0.00,weatherlink.com 1.10,2013-08-21 11:57:00,
2013-08-21 08:12:00,66.7,62.0,30.15,SSW,201,0.0,-999.0,84,-99.99,,,0.00,weatherlink.com 1.10,2013-08-21 12:12:00,
2013-08-21 08:27:00,67.6,62.0,30.15,SSE,159,0.0,-999.0,82,-99.99,,,0.00,weatherlink.com 1.10,2013-08-21 12:27:00,
2013-08-21 08:42:00,68.8,63.0,30.15,SSE,159,0.0,-999.0,81,-99.99,,,0.00,weatherlink.com 1.10,2013-08-21 12:42:00,
2013-08-21 08:57:00,70.3,63.0,30.15,SSE,159,0.0,-999.0,78,-99.99,,,0.00,weatherlink.com 1.10,2013-08-21 12:57:00,
2013-08-21 09:12:00,71.9,64.0,30.15,SSE,158,0.0,-999.0,75,-99.99,,,0.00,weatherlink.com 1.10,2013-08-21 13:12:00,
2013-08-21 09:27:00,73.3,64.0,30.15,SSE,157,2.0,-999.0,73,-99.99,,,0.00,weatherlink.com 1.10,2013-08-21 13:27:00,
2013-08-21 09:42:00,74.5,64.0,30.15,SSE,157,0.0,-999.0,70,-99.99,,,0.00,weatherlink.com 1.10,2013-08-21 13:42:00,
2013-08-21 09:57:00,75.2,63.0,30.15,SSE,161,0.0,-999.0,67,-99.99,,,0.00,weatherlink.com 1.10,2013-08-21 13:57:00,
2013-08-21 10:12:00,76.5,64.0,30.15,SSE,158,0.0,-999.0,66,-99.99,,,0.00,weatherlink.com 1.10,2013-08-21 14:12:00,
2013-08-21 10:27:00,77.6,64.0,30.15,SSW,196,0.0,-999.0,63,-99.99,,,0.00,weatherlink.com 1.10,2013-08-21 14:27:00,
2013-08-21 10:42:00,78.5,63.0,30.15,SSE,164,0.0,-999.0,60,-99.99,,,0.00,weatherlink.com 1.10,2013-08-21 14:42:00,
2013-08-21 10:57:00,79.6,64.0,30.15,SSE,148,0.0,-999.0,59,-99.99,,,0.00,weatherlink.com 1.10,2013-08-21 14:57:00,
2013-08-21 11:13:00,79.6,63.0,30.15,SSE,165,0.0,-999.0,58,-99.99,,,0.00,weatherlink.com 1.10,2013-08-21 15:13:00,
2013-08-21 11:28:00,79.6,65.0,30.15,SSE,164,0.0,-999.0,61,-99.99,,,0.00,weatherlink.com 1.10,2013-08-21 15:28:00,
2013-08-21 11:43:00,80.6,65.0,30.14,East,92,1.0,-999.0,60,-99.99,,,0.00,weatherlink.com 1.10,2013-08-21 15:43:00,
2013-08-21 11:58:00,80.4,66.0,30.14,South,186,0.0,-999.0,61,-99.99,,,0.00,weatherlink.com 1.10,2013-08-21 15:58:00,
2013-08-21 12:13:00,81.4,66.0,30.14,SSW,201,0.0,-999.0,59,-99.99,,,0.00,weatherlink.com 1.10,2013-08-21 16:13:00,
2013-08-21 12:28:00,83.0,66.0,30.13,WSW,252,5.0,-999.0,57,-99.99,,,0.00,weatherlink.com 1.10,2013-08-21 16:28:00,
2013-08-21 12:43:00,83.4,66.0,30.13,SE,146,0.0,-999.0,56,-99.99,,,0.00,weatherlink.com 1.10,2013-08-21 16:43:00,
2013-08-21 12:58:00,83.4,65.0,30.13,ESE,122,2.0,-999.0,54,-99.99,,,0.00,weatherlink.com 1.10,2013-08-21 16:58:00,
2013-08-21 13:13:00,85.0,66.0,30.13,SE,129,2.0,-999.0,54,-99.99,,,0.00,weatherlink.com 1.10,2013-08-21 17:13:00,
2013-08-21 13:28:00,85.8,66.0,30.12,SW,217,1.0,-999.0,51,-99.99,,,0.00,weatherlink.com 1.10,2013-08-21 17:28:00,
2013-08-21 13:43:00,85.9,66.0,30.12,SSE,153,1.0,-999.0,52,-99.99,,,0.00,weatherlink.com 1.10,2013-08-21 17:43:00,
2013-08-21 13:58:00,86.9,66.0,30.11,SE,142,0.0,-999.0,50,-99.99,,,0.00,weatherlink.com 1.10,2013-08-21 17:58:00,
2013-08-21 14:13:00,86.8,66.0,30.11,SSE,157,5.0,-999.0,50,-99.99,,,0.00,weatherlink.com 1.10,2013-08-21 18:13:00,
2013-08-21 14:28:00,86.0,66.0,30.11,SE,129,2.0,-999.0,52,-99.99,,,0.00,weatherlink.com 1.10,2013-08-21 18:28:00,
2013-08-21 14:43:00,86.6,66.0,30.09,SSW,195,1.0,-999.0,50,-99.99,,,0.00,weatherlink.com 1.10,2013-08-21 18:43:00,
2013-08-21 14:58:00,87.8,66.0,30.09,SSE,156,7.0,-999.0,48,-99.99,,,0.00,weatherlink.com 1.10,2013-08-21 18:58:00,
2013-08-21 15:13:00,86.9,64.0,30.08,ESE,105,0.0,-999.0,47,-99.99,,,0.00,weatherlink.com 1.10,2013-08-21 19:13:00,
2013-08-21 15:28:00,87.0,64.0,30.07,SE,139,0.0,-999.0,47,-99.99,,,0.00,weatherlink.com 1.10,2013-08-21 19:28:00,
2013-08-21 15:43:00,87.2,65.0,30.07,South,184,2.0,-999.0,47,-99.99,,,0.00,weatherlink.com 1.10,2013-08-21 19:43:00,
2013-08-21 15:58:00,87.3,65.0,30.07,South,180,0.0,-999.0,47,-99.99,,,0.00,weatherlink.com 1.10,2013-08-21 19:58:00,
2013-08-21 16:13:00,87.0,64.0,30.06,South,171,0.0,-999.0,46,-99.99,,,0.00,weatherlink.com 1.10,2013-08-21 20:13:00,
2013-08-21 16:28:00,87.1,63.0,30.06,SW,219,0.0,-999.0,45,-99.99,,,0.00,weatherlink.com 1.10,2013-08-21 20:28:00,
2013-08-21 16:43:00,87.5,64.0,30.05,SSW,195,0.0,-999.0,45,-99.99,,,0.00,weatherlink.com 1.10,2013-08-21 20:43:00,
2013-08-21 16:58:00,86.8,64.0,30.05,SSW,196,0.0,-999.0,46,-99.99,,,0.00,weatherlink.com 1.10,2013-08-21 20:58:00,
2013-08-21 17:13:00,86.8,64.0,30.05,ESE,111,2.0,-999.0,47,-99.99,,,0.00,weatherlink.com 1.10,2013-08-21 21:13:00,
2013-08-21 17:28:00,86.9,64.0,30.04,SSW,213,0.0,-999.0,46,-99.99,,,0.00,weatherlink.com 1.10,2013-08-21 21:28:00,
2013-08-21 17:43:00,86.7,63.0,30.04,SW,221,0.0,-999.0,45,-99.99,,,0.00,weatherlink.com 1.10,2013-08-21 21:43:00,
2013-08-21 17:58:00,86.2,63.0,30.03,SW,228,0.0,-999.0,46,-99.99,,,0.00,weatherlink.com 1.10,2013-08-21 21:58:00,
2013-08-21 18:13:00,86.1,64.0,30.03,SW,227,5.0,-999.0,47,-99.99,,,0.00,weatherlink.com 1.10,2013-08-21 22:13:00,
2013-08-21 18:28:00,85.4,63.0,30.02,SW,228,0.0,-999.0,48,-99.99,,,0.00,weatherlink.com 1.10,2013-08-21 22:28:00,
2013-08-21 18:43:00,84.9,64.0,30.02,SW,225,0.0,-999.0,49,-99.99,,,0.00,weatherlink.com 1.10,2013-08-21 22:43:00,
2013-08-21 18:58:00,84.6,64.0,30.02,SW,216,0.0,-999.0,50,-99.99,,,0.00,weatherlink.com 1.10,2013-08-21 22:58:00,
2013-08-21 19:13:00,83.8,64.0,30.02,SW,216,0.0,-999.0,52,-99.99,,,0.00,weatherlink.com 1.10,2013-08-21 23:13:00,
2013-08-21 19:28:00,82.7,64.0,30.02,SW,216,0.0,-999.0,54,-99.99,,,0.00,weatherlink.com 1.10,2013-08-21 23:28:00,
2013-08-21 19:43:00,81.4,65.0,30.01,SW,216,0.0,-999.0,58,-99.99,,,0.00,weatherlink.com 1.10,2013-08-21 23:43:00,
2013-08-21 19:58:00,79.0,65.0,30.01,SW,216,0.0,-999.0,62,-99.99,,,0.00,weatherlink.com 1.10,2013-08-21 23:58:00,
2013-08-21 20:13:00,77.5,65.0,30.01,SW,216,0.0,-999.0,65,-99.99,,,0.00,weatherlink.com 1.10,2013-08-22 00:13:00,
2013-08-21 20:29:00,76.3,65.0,30.00,SW,216,0.0,-999.0,68,-99.99,,,0.00,weatherlink.com 1.10,2013-08-22 00:29:00,
2013-08-21 20:44:00,75.5,65.0,30.01,SW,216,0.0,-999.0,70,-99.99,,,0.00,weatherlink.com 1.10,2013-08-22 00:44:00,
2013-08-21 20:59:00,74.9,65.0,30.01,SW,216,0.0,-999.0,71,-99.99,,,0.00,weatherlink.com 1.10,2013-08-22 00:59:00,
2013-08-21 21:14:00,74.3,66.0,30.01,SW,216,0.0,-999.0,74,-99.99,,,0.00,weatherlink.com 1.10,2013-08-22 01:14:00,
2013-08-21 21:29:00,73.4,65.0,30.02,SW,216,0.0,-999.0,75,-99.99,,,0.00,weatherlink.com 1.10,2013-08-22 01:29:00,
2013-08-21 21:44:00,72.8,65.0,30.01,SW,216,0.0,-999.0,77,-99.99,,,0.00,weatherlink.com 1.10,2013-08-22 01:44:00,
2013-08-21 21:59:00,72.1,65.0,30.01,SW,216,0.0,-999.0,79,-99.99,,,0.00,weatherlink.com 1.10,2013-08-22 01:59:00,
2013-08-21 22:14:00,71.7,65.0,30.01,SW,216,0.0,-999.0,79,-99.99,,,0.00,weatherlink.com 1.10,2013-08-22 02:14:00,
2013-08-21 22:29:00,71.5,65.0,30.02,SW,216,0.0,-999.0,79,-99.99,,,0.00,weatherlink.com 1.10,2013-08-22 02:29:00,
2013-08-21 22:44:00,71.2,64.0,30.01,SW,216,0.0,-999.0,79,-99.99,,,0.00,weatherlink.com 1.10,2013-08-22 02:44:00,
2013-08-21 22:59:00,71.0,64.0,30.01,SW,216,0.0,-999.0,78,-99.99,,,0.00,weatherlink.com 1.10,2013-08-22 02:59:00,
2013-08-21 23:14:00,71.1,64.0,30.02,SW,216,0.0,-999.0,77,-99.99,,,0.00,weatherlink.com 1.10,2013-08-22 03:14:00,
2013-08-21 23:29:00,71.2,64.0,30.02,SW,216,0.0,-999.0,77,-99.99,,,0.00,weatherlink.com 1.10,2013-08-22 03:29:00,
2013-08-21 23:44:00,70.8,63.0,30.02,SW,216,0.0,-999.0,77,-99.99,,,0.00,weatherlink.com 1.10,2013-08-22 03:44:00,
2013-08-21 23:59:00,70.2,63.0,30.01,SW,216,0.0,-999.0,79,-99.99,,,0.00,weatherlink.com 1.10,2013-08-22 03:59:00,